Mossley, United Kingdom
Current Conditions -  °F | °C
As of 9:20 AM on Friday 31 Oct 2014 (Local Time) from EGCC Reporting Station
Clear Clear  
Wind Chill: 61°   Ceiling: Unl
Heat Index: 61°   Visibility: 6mi
Dew Point: 57°   Wind: 18mph
Humidity: 88%   Direction: 180°S
Pressure: 29.91"   Gusts: NA
Location:  53.51°N, 2.03°W
Report Text: EGCC 310920Z 18016KT 130V190 9000 NSC 16/14 Q1013
Loading
Personal Weather Stations






























Interactive Weather Map New forecast layout! Learn more

10-Day Weather Forecast

Advertisements
Track Severe Weather on mobile